Qulin, MO (63961)

9:32 AM CDT on August 30, 2014 (GMT -0500)
Inman Acres | Change Station
CLOSE
Current Station
Personal Weather Station
Location: Poplar Bluff, MO
Elevation: 341 ft
Nearby Weather Stations

Elev 341 ft 36.76 °N, 90.34 °W | Updated 6 minutes ago

Mostly Cloudy
Mostly Cloudy
75.0 °F
Feels Like 73 °F
N
0.0
Wind Variable Wind from SSW
Gusts 4.0 mph

Today
High -- | Low -- °F
--% Chance of Precip.
Yesterday
High -- | Low -- °F
Precip. -- in
6:30 AM 7:31 PM
Waxing Crescent, 22% visible
Pressure 29.98 in
Visibility 10.0 miles
Clouds Mostly Cloudy 5500 ft
Heat Index 73 °F
Dew Point 74 °F
Humidity 96%
Rainfall 0.00 in
Snow Depth Not available.
UV 1 out of 12
Pollen 5.10 out of 12
Air Quality Not available.
Flu Activity Not available.
METAR KPOF 301353Z AUTO 00000KT 10SM BKN055 24/21 A2999 RMK AO2 LTG DSNT NW SLP152 T02440211 $

More Conditions Fewer Conditions

Pressure 29.98 in
Visibility 10.0 miles
Clouds Mostly Cloudy 5500 ft
Heat Index 73 °F
Dew Point 74 °F
Humidity 96%
Rainfall 0.00 in
Snow Depth Not available.
UV 1 out of 12
Pollen 5.10 out of 12
Air Quality Not available.
Flu Activity Not available.
METAR KPOF 301353Z AUTO 00000KT 10SM BKN055 24/21 A2999 RMK AO2 LTG DSNT NW SLP152 T02440211 $

More Conditions Fewer Conditions

10-Day Weather Forecast

Almanac

Astronomy

Aug. 30, 2014 Rise Set
Actual Time 6:30 AM CDT 7:31 PM CDT
Civil Twilight 6:04 AM CDT 7:58 PM CDT
Nautical Twilight 5:32 AM CDT 8:29 PM CDT
Astronomical Twilight 5:00 AM CDT 9:02 PM CDT
Moon 11:09 AM CDT 10:15 PM CDT
Length of Visible Light 13h 54m
Length of Day
13h 01m
Tomorrow will be 2m 13s shorter.
Waxing Crescent, 22% of the Moon is Illuminated
Today
Waxing Crescent
Sep 2
First Quarter
Sep 8
Full
Sep 15
Last Quarter
Sep 24
New

Today's Extremes

State Highs State Lows

Community

WunderPhotos

Upload Photos

1,748,523 photos uploaded!

WunderBlogs® & News

Nearby

Snow Depth

Station Depth Elevation
No new snow has been reported.

Earthquake Activity

City Distance Mag. Time & Date
No recent earthquake activity has been reported nearby.
Minimum magnitude displayed is 2.5.

Coastal Water Temperatures

Place Temperature
No Stations Reporting

Nearby Weather Stations